sensor_id;sensor_type;location;lat;lon;timestamp;P1;durP1;ratioP1;P2;durP2;ratioP2
6432;SDS011;3249;42.690;23.260;2023-01-16T00:00:31;52.60;;;26.67;;
6432;SDS011;3249;42.690;23.260;2023-01-16T00:03:00;50.87;;;25.83;;
6432;SDS011;3249;42.690;23.260;2023-01-16T00:05:29;77.37;;;32.53;;
6432;SDS011;3249;42.690;23.260;2023-01-16T00:07:58;46.77;;;25.83;;
6432;SDS011;3249;42.690;23.260;2023-01-16T00:10:27;54.33;;;27.83;;
6432;SDS011;3249;42.690;23.260;2023-01-16T00:12:56;53.30;;;26.83;;
6432;SDS011;3249;42.690;23.260;2023-01-16T00:15:25;79.33;;;34.40;;
6432;SDS011;3249;42.690;23.260;2023-01-16T00:17:56;65.87;;;28.13;;
6432;SDS011;3249;42.690;23.260;2023-01-16T00:20:25;75.07;;;32.77;;
6432;SDS011;3249;42.690;23.260;2023-01-16T00:22:54;112.20;;;32.13;;
6432;SDS011;3249;42.690;23.260;2023-01-16T00:25:23;69.30;;;31.97;;
6432;SDS011;3249;42.690;23.260;2023-01-16T00:27:52;90.43;;;30.77;;
6432;SDS011;3249;42.690;23.260;2023-01-16T00:30:21;67.50;;;32.00;;
6432;SDS011;3249;42.690;23.260;2023-01-16T00:32:50;60.30;;;28.33;;
6432;SDS011;3249;42.690;23.260;2023-01-16T00:35:22;63.97;;;31.90;;
6432;SDS011;3249;42.690;23.260;2023-01-16T00:37:52;54.60;;;29.80;;
6432;SDS011;3249;42.690;23.260;2023-01-16T00:40:21;49.50;;;28.07;;
6432;SDS011;3249;42.690;23.260;2023-01-16T00:42:50;55.80;;;27.67;;
6432;SDS011;3249;42.690;23.260;2023-01-16T00:45:19;48.83;;;27.63;;
6432;SDS011;3249;42.690;23.260;2023-01-16T00:47:49;51.40;;;28.20;;
6432;SDS011;3249;42.690;23.260;2023-01-16T00:50:17;50.93;;;26.90;;
6432;SDS011;3249;42.690;23.260;2023-01-16T00:52:49;48.57;;;28.60;;
6432;SDS011;3249;42.690;23.260;2023-01-16T00:55:18;50.83;;;27.00;;
6432;SDS011;3249;42.690;23.260;2023-01-16T00:57:47;50.13;;;27.70;;
6432;SDS011;3249;42.690;23.260;2023-01-16T01:00:16;52.40;;;29.80;;
6432;SDS011;3249;42.690;23.260;2023-01-16T01:02:47;47.70;;;26.47;;
6432;SDS011;3249;42.690;23.260;2023-01-16T01:05:16;46.43;;;26.10;;
6432;SDS011;3249;42.690;23.260;2023-01-16T01:07:46;43.47;;;26.13;;
6432;SDS011;3249;42.690;23.260;2023-01-16T01:10:17;42.47;;;25.00;;
6432;SDS011;3249;42.690;23.260;2023-01-16T01:12:46;40.60;;;23.23;;
6432;SDS011;3249;42.690;23.260;2023-01-16T01:15:15;43.13;;;25.17;;
6432;SDS011;3249;42.690;23.260;2023-01-16T01:17:44;40.90;;;24.70;;
6432;SDS011;3249;42.690;23.260;2023-01-16T01:20:13;39.63;;;24.10;;
6432;SDS011;3249;42.690;23.260;2023-01-16T01:22:43;39.43;;;24.80;;
6432;SDS011;3249;42.690;23.260;2023-01-16T01:25:16;41.73;;;25.53;;
6432;SDS011;3249;42.690;23.260;2023-01-16T01:27:45;41.50;;;24.77;;
6432;SDS011;3249;42.690;23.260;2023-01-16T01:30:14;42.97;;;26.07;;
6432;SDS011;3249;42.690;23.260;2023-01-16T01:32:43;38.50;;;23.63;;
6432;SDS011;3249;42.690;23.260;2023-01-16T01:35:12;39.73;;;24.33;;
6432;SDS011;3249;42.690;23.260;2023-01-16T01:37:44;40.40;;;25.97;;
6432;SDS011;3249;42.690;23.260;2023-01-16T01:40:16;43.43;;;26.40;;
6432;SDS011;3249;42.690;23.260;2023-01-16T01:42:45;41.40;;;26.87;;
6432;SDS011;3249;42.690;23.260;2023-01-16T01:45:18;42.67;;;24.43;;
6432;SDS011;3249;42.690;23.260;2023-01-16T01:47:51;38.93;;;25.27;;
6432;SDS011;3249;42.690;23.260;2023-01-16T01:50:30;40.13;;;24.67;;
6432;SDS011;3249;42.690;23.260;2023-01-16T01:53:06;38.93;;;24.93;;
6432;SDS011;3249;42.690;23.260;2023-01-16T01:55:42;39.07;;;24.67;;
6432;SDS011;3249;42.690;23.260;2023-01-16T01:58:15;47.83;;;28.23;;
6432;SDS011;3249;42.690;23.260;2023-01-16T02:00:52;38.60;;;24.63;;
6432;SDS011;3249;42.690;23.260;2023-01-16T02:03:23;40.57;;;24.50;;
6432;SDS011;3249;42.690;23.260;2023-01-16T02:05:59;37.00;;;23.67;;
6432;SDS011;3249;42.690;23.260;2023-01-16T02:08:33;40.93;;;23.87;;
6432;SDS011;3249;42.690;23.260;2023-01-16T02:11:07;34.03;;;22.40;;
6432;SDS011;3249;42.690;23.260;2023-01-16T02:13:51;32.90;;;22.43;;
6432;SDS011;3249;42.690;23.260;2023-01-16T02:16:21;34.67;;;22.10;;
6432;SDS011;3249;42.690;23.260;2023-01-16T02:19:09;30.80;;;21.87;;
6432;SDS011;3249;42.690;23.260;2023-01-16T02:22:11;32.67;;;23.17;;
6432;SDS011;3249;42.690;23.260;2023-01-16T02:25:13;34.80;;;22.90;;
6432;SDS011;3249;42.690;23.260;2023-01-16T02:31:32;35.30;;;24.17;;
6432;SDS011;3249;42.690;23.260;2023-01-16T02:34:16;36.03;;;24.50;;
6432;SDS011;3249;42.690;23.260;2023-01-16T02:36:58;40.37;;;23.10;;
6432;SDS011;3249;42.690;23.260;2023-01-16T02:39:36;34.83;;;22.53;;
6432;SDS011;3249;42.690;23.260;2023-01-16T02:42:13;35.00;;;22.30;;
6432;SDS011;3249;42.690;23.260;2023-01-16T02:44:52;34.93;;;22.03;;
6432;SDS011;3249;42.690;23.260;2023-01-16T02:47:29;34.77;;;24.13;;
6432;SDS011;3249;42.690;23.260;2023-01-16T02:50:06;35.83;;;23.90;;
6432;SDS011;3249;42.690;23.260;2023-01-16T02:52:43;38.93;;;26.17;;
6432;SDS011;3249;42.690;23.260;2023-01-16T02:55:19;39.40;;;26.90;;
6432;SDS011;3249;42.690;23.260;2023-01-16T02:57:54;39.90;;;26.80;;
6432;SDS011;3249;42.690;23.260;2023-01-16T03:00:26;36.93;;;25.67;;
6432;SDS011;3249;42.690;23.260;2023-01-16T03:03:00;37.27;;;25.27;;
6432;SDS011;3249;42.690;23.260;2023-01-16T03:05:31;37.80;;;26.27;;
6432;SDS011;3249;42.690;23.260;2023-01-16T03:08:17;41.10;;;25.73;;
6432;SDS011;3249;42.690;23.260;2023-01-16T03:11:00;36.97;;;25.07;;
6432;SDS011;3249;42.690;23.260;2023-01-16T03:13:43;37.30;;;24.03;;
6432;SDS011;3249;42.690;23.260;2023-01-16T03:16:26;35.27;;;24.00;;
6432;SDS011;3249;42.690;23.260;2023-01-16T03:19:16;45.27;;;24.17;;
6432;SDS011;3249;42.690;23.260;2023-01-16T03:21:59;37.90;;;25.10;;
6432;SDS011;3249;42.690;23.260;2023-01-16T03:24:38;37.93;;;24.90;;
6432;SDS011;3249;42.690;23.260;2023-01-16T03:27:21;35.77;;;23.73;;
6432;SDS011;3249;42.690;23.260;2023-01-16T03:30:02;38.60;;;25.70;;
6432;SDS011;3249;42.690;23.260;2023-01-16T03:32:39;41.47;;;24.57;;
6432;SDS011;3249;42.690;23.260;2023-01-16T03:35:16;43.67;;;25.70;;
6432;SDS011;3249;42.690;23.260;2023-01-16T03:37:51;46.50;;;26.87;;
6432;SDS011;3249;42.690;23.260;2023-01-16T03:40:24;50.07;;;26.43;;
6432;SDS011;3249;42.690;23.260;2023-01-16T03:42:57;46.83;;;26.40;;
6432;SDS011;3249;42.690;23.260;2023-01-16T03:45:31;52.60;;;27.17;;
6432;SDS011;3249;42.690;23.260;2023-01-16T03:48:07;104.03;;;26.87;;
6432;SDS011;3249;42.690;23.260;2023-01-16T03:50:44;213.97;;;31.67;;
6432;SDS011;3249;42.690;23.260;2023-01-16T03:53:17;96.33;;;27.97;;
6432;SDS011;3249;42.690;23.260;2023-01-16T03:55:50;141.30;;;29.33;;
6432;SDS011;3249;42.690;23.260;2023-01-16T03:58:26;126.77;;;29.60;;
6432;SDS011;3249;42.690;23.260;2023-01-16T04:01:10;165.20;;;30.17;;
6432;SDS011;3249;42.690;23.260;2023-01-16T04:03:43;123.37;;;28.40;;
6432;SDS011;3249;42.690;23.260;2023-01-16T04:06:23;177.37;;;30.80;;
6432;SDS011;3249;42.690;23.260;2023-01-16T04:08:59;160.03;;;29.97;;
6432;SDS011;3249;42.690;23.260;2023-01-16T04:11:33;84.00;;;26.77;;
6432;SDS011;3249;42.690;23.260;2023-01-16T04:14:04;69.87;;;25.07;;
6432;SDS011;3249;42.690;23.260;2023-01-16T04:16:35;100.97;;;25.80;;
6432;SDS011;3249;42.690;23.260;2023-01-16T04:19:06;66.30;;;25.83;;
6432;SDS011;3249;42.690;23.260;2023-01-16T04:21:45;70.53;;;24.97;;
6432;SDS011;3249;42.690;23.260;2023-01-16T04:24:14;50.27;;;21.90;;
6432;SDS011;3249;42.690;23.260;2023-01-16T04:26:44;49.77;;;22.27;;
6432;SDS011;3249;42.690;23.260;2023-01-16T04:29:13;50.40;;;22.73;;
6432;SDS011;3249;42.690;23.260;2023-01-16T04:31:42;43.10;;;21.83;;
6432;SDS011;3249;42.690;23.260;2023-01-16T04:34:11;93.17;;;24.50;;
6432;SDS011;3249;42.690;23.260;2023-01-16T04:36:40;73.47;;;22.17;;
6432;SDS011;3249;42.690;23.260;2023-01-16T04:39:12;76.23;;;23.63;;
6432;SDS011;3249;42.690;23.260;2023-01-16T04:41:41;80.87;;;23.60;;
6432;SDS011;3249;42.690;23.260;2023-01-16T04:44:13;45.87;;;21.07;;
6432;SDS011;3249;42.690;23.260;2023-01-16T04:46:41;74.70;;;25.17;;
6432;SDS011;3249;42.690;23.260;2023-01-16T04:49:11;83.97;;;24.90;;
6432;SDS011;3249;42.690;23.260;2023-01-16T04:51:40;107.07;;;22.03;;
6432;SDS011;3249;42.690;23.260;2023-01-16T04:54:13;146.27;;;27.10;;
6432;SDS011;3249;42.690;23.260;2023-01-16T04:56:43;76.83;;;23.47;;
6432;SDS011;3249;42.690;23.260;2023-01-16T04:59:12;103.17;;;27.63;;
6432;SDS011;3249;42.690;23.260;2023-01-16T05:01:41;122.07;;;27.30;;
6432;SDS011;3249;42.690;23.260;2023-01-16T05:04:12;50.70;;;23.40;;
6432;SDS011;3249;42.690;23.260;2023-01-16T05:06:42;61.07;;;23.90;;
6432;SDS011;3249;42.690;23.260;2023-01-16T05:09:13;45.67;;;21.77;;
6432;SDS011;3249;42.690;23.260;2023-01-16T05:11:43;40.20;;;20.03;;
6432;SDS011;3249;42.690;23.260;2023-01-16T05:14:12;53.50;;;22.20;;
6432;SDS011;3249;42.690;23.260;2023-01-16T05:16:41;44.53;;;21.53;;
6432;SDS011;3249;42.690;23.260;2023-01-16T05:19:10;44.53;;;20.57;;
6432;SDS011;3249;42.690;23.260;2023-01-16T05:21:39;42.27;;;20.33;;
6432;SDS011;3249;42.690;23.260;2023-01-16T05:24:08;34.10;;;19.50;;
6432;SDS011;3249;42.690;23.260;2023-01-16T05:26:39;39.70;;;21.60;;
6432;SDS011;3249;42.690;23.260;2023-01-16T05:29:08;39.00;;;19.37;;
6432;SDS011;3249;42.690;23.260;2023-01-16T05:31:37;46.03;;;21.57;;
6432;SDS011;3249;42.690;23.260;2023-01-16T05:34:07;63.30;;;23.30;;
6432;SDS011;3249;42.690;23.260;2023-01-16T05:36:36;61.60;;;25.60;;
6432;SDS011;3249;42.690;23.260;2023-01-16T05:39:05;75.17;;;24.13;;
6432;SDS011;3249;42.690;23.260;2023-01-16T05:41:35;65.33;;;24.97;;
6432;SDS011;3249;42.690;23.260;2023-01-16T05:44:06;51.77;;;25.40;;
6432;SDS011;3249;42.690;23.260;2023-01-16T05:46:35;51.43;;;26.00;;
6432;SDS011;3249;42.690;23.260;2023-01-16T05:49:04;45.00;;;25.63;;
6432;SDS011;3249;42.690;23.260;2023-01-16T05:51:33;41.57;;;23.73;;
6432;SDS011;3249;42.690;23.260;2023-01-16T05:54:02;39.60;;;23.57;;
6432;SDS011;3249;42.690;23.260;2023-01-16T05:56:31;36.03;;;22.43;;
6432;SDS011;3249;42.690;23.260;2023-01-16T05:59:00;34.63;;;22.93;;
6432;SDS011;3249;42.690;23.260;2023-01-16T06:01:32;42.40;;;24.63;;
6432;SDS011;3249;42.690;23.260;2023-01-16T06:04:01;38.53;;;24.60;;
6432;SDS011;3249;42.690;23.260;2023-01-16T06:06:30;45.70;;;26.27;;
6432;SDS011;3249;42.690;23.260;2023-01-16T06:08:59;39.90;;;24.90;;
6432;SDS011;3249;42.690;23.260;2023-01-16T06:11:28;32.87;;;22.97;;
6432;SDS011;3249;42.690;23.260;2023-01-16T06:13:57;35.33;;;23.87;;
6432;SDS011;3249;42.690;23.260;2023-01-16T06:16:29;38.00;;;24.30;;
6432;SDS011;3249;42.690;23.260;2023-01-16T06:19:00;37.57;;;24.27;;
6432;SDS011;3249;42.690;23.260;2023-01-16T06:21:30;41.63;;;26.77;;
6432;SDS011;3249;42.690;23.260;2023-01-16T06:23:58;47.70;;;25.53;;
6432;SDS011;3249;42.690;23.260;2023-01-16T06:26:27;40.57;;;25.17;;
6432;SDS011;3249;42.690;23.260;2023-01-16T06:28:56;53.00;;;31.00;;
6432;SDS011;3249;42.690;23.260;2023-01-16T06:31:25;44.00;;;27.13;;
6432;SDS011;3249;42.690;23.260;2023-01-16T06:33:57;50.37;;;28.43;;
6432;SDS011;3249;42.690;23.260;2023-01-16T06:36:26;35.63;;;23.27;;
6432;SDS011;3249;42.690;23.260;2023-01-16T06:38:55;45.10;;;27.70;;
6432;SDS011;3249;42.690;23.260;2023-01-16T06:41:24;47.87;;;29.17;;
6432;SDS011;3249;42.690;23.260;2023-01-16T06:43:53;44.93;;;25.87;;
6432;SDS011;3249;42.690;23.260;2023-01-16T06:46:22;40.57;;;24.70;;
6432;SDS011;3249;42.690;23.260;2023-01-16T06:48:51;43.37;;;25.53;;
6432;SDS011;3249;42.690;23.260;2023-01-16T06:51:22;38.20;;;24.73;;
6432;SDS011;3249;42.690;23.260;2023-01-16T06:53:52;83.97;;;49.07;;
6432;SDS011;3249;42.690;23.260;2023-01-16T06:56:21;64.50;;;37.00;;
6432;SDS011;3249;42.690;23.260;2023-01-16T06:58:50;51.47;;;31.70;;
6432;SDS011;3249;42.690;23.260;2023-01-16T07:01:18;71.43;;;43.97;;
6432;SDS011;3249;42.690;23.260;2023-01-16T07:03:48;68.73;;;42.80;;
6432;SDS011;3249;42.690;23.260;2023-01-16T07:06:16;89.37;;;46.67;;
6432;SDS011;3249;42.690;23.260;2023-01-16T07:08:48;80.97;;;44.87;;
6432;SDS011;3249;42.690;23.260;2023-01-16T07:11:18;86.33;;;48.30;;
6432;SDS011;3249;42.690;23.260;2023-01-16T07:13:48;83.57;;;46.10;;
6432;SDS011;3249;42.690;23.260;2023-01-16T07:16:37;79.20;;;43.80;;
6432;SDS011;3249;42.690;23.260;2023-01-16T07:19:18;60.67;;;34.20;;
6432;SDS011;3249;42.690;23.260;2023-01-16T07:21:59;65.50;;;37.73;;
6432;SDS011;3249;42.690;23.260;2023-01-16T07:24:43;52.53;;;31.33;;
6432;SDS011;3249;42.690;23.260;2023-01-16T07:27:12;49.50;;;31.47;;
6432;SDS011;3249;42.690;23.260;2023-01-16T07:29:41;56.70;;;33.10;;
6432;SDS011;3249;42.690;23.260;2023-01-16T07:32:10;50.30;;;29.63;;
6432;SDS011;3249;42.690;23.260;2023-01-16T07:34:39;43.47;;;27.33;;
6432;SDS011;3249;42.690;23.260;2023-01-16T07:37:09;51.20;;;29.10;;
6432;SDS011;3249;42.690;23.260;2023-01-16T07:39:38;53.03;;;26.97;;
6432;SDS011;3249;42.690;23.260;2023-01-16T07:42:10;50.17;;;28.83;;
6432;SDS011;3249;42.690;23.260;2023-01-16T07:44:39;55.23;;;31.03;;
6432;SDS011;3249;42.690;23.260;2023-01-16T07:47:08;62.47;;;31.87;;
6432;SDS011;3249;42.690;23.260;2023-01-16T07:49:38;64.00;;;35.43;;
6432;SDS011;3249;42.690;23.260;2023-01-16T07:52:07;57.43;;;32.53;;
6432;SDS011;3249;42.690;23.260;2023-01-16T07:54:36;56.97;;;32.70;;
6432;SDS011;3249;42.690;23.260;2023-01-16T07:57:06;69.33;;;36.83;;
6432;SDS011;3249;42.690;23.260;2023-01-16T07:59:38;69.20;;;37.90;;
6432;SDS011;3249;42.690;23.260;2023-01-16T08:02:07;83.43;;;44.03;;
6432;SDS011;3249;42.690;23.260;2023-01-16T08:04:37;73.47;;;41.70;;
6432;SDS011;3249;42.690;23.260;2023-01-16T08:07:06;87.37;;;39.87;;
6432;SDS011;3249;42.690;23.260;2023-01-16T08:09:35;74.47;;;38.77;;
6432;SDS011;3249;42.690;23.260;2023-01-16T08:12:04;78.87;;;41.57;;
6432;SDS011;3249;42.690;23.260;2023-01-16T08:14:33;78.30;;;39.53;;
6432;SDS011;3249;42.690;23.260;2023-01-16T08:17:07;97.23;;;48.53;;
6432;SDS011;3249;42.690;23.260;2023-01-16T08:19:36;106.47;;;53.47;;
6432;SDS011;3249;42.690;23.260;2023-01-16T08:22:05;125.83;;;64.43;;
6432;SDS011;3249;42.690;23.260;2023-01-16T08:24:34;144.37;;;71.23;;
6432;SDS011;3249;42.690;23.260;2023-01-16T08:27:03;128.63;;;66.07;;
6432;SDS011;3249;42.690;23.260;2023-01-16T08:29:32;121.50;;;62.00;;
6432;SDS011;3249;42.690;23.260;2023-01-16T08:32:01;113.27;;;57.10;;
6432;SDS011;3249;42.690;23.260;2023-01-16T08:34:32;94.93;;;50.67;;
6432;SDS011;3249;42.690;23.260;2023-01-16T08:37:01;74.10;;;43.60;;
6432;SDS011;3249;42.690;23.260;2023-01-16T08:39:32;86.33;;;45.10;;
6432;SDS011;3249;42.690;23.260;2023-01-16T08:42:01;78.60;;;44.83;;
6432;SDS011;3249;42.690;23.260;2023-01-16T08:44:42;107.20;;;54.87;;
6432;SDS011;3249;42.690;23.260;2023-01-16T08:47:23;96.80;;;49.77;;
6432;SDS011;3249;42.690;23.260;2023-01-16T08:50:08;88.23;;;51.17;;
6432;SDS011;3249;42.690;23.260;2023-01-16T08:52:52;91.70;;;50.73;;
6432;SDS011;3249;42.690;23.260;2023-01-16T08:55:20;86.57;;;48.03;;
6432;SDS011;3249;42.690;23.260;2023-01-16T08:57:49;90.47;;;50.67;;
6432;SDS011;3249;42.690;23.260;2023-01-16T09:00:19;95.73;;;53.70;;
6432;SDS011;3249;42.690;23.260;2023-01-16T09:02:49;85.33;;;49.83;;
6432;SDS011;3249;42.690;23.260;2023-01-16T09:05:21;94.43;;;52.10;;
6432;SDS011;3249;42.690;23.260;2023-01-16T09:07:51;86.00;;;47.47;;
6432;SDS011;3249;42.690;23.260;2023-01-16T09:10:20;84.17;;;48.07;;
6432;SDS011;3249;42.690;23.260;2023-01-16T09:12:50;100.77;;;54.57;;
6432;SDS011;3249;42.690;23.260;2023-01-16T09:15:31;90.40;;;51.97;;
6432;SDS011;3249;42.690;23.260;2023-01-16T09:18:00;88.53;;;52.83;;
6432;SDS011;3249;42.690;23.260;2023-01-16T09:20:32;91.43;;;51.27;;
6432;SDS011;3249;42.690;23.260;2023-01-16T09:23:01;95.30;;;53.13;;
6432;SDS011;3249;42.690;23.260;2023-01-16T09:25:32;99.47;;;52.60;;
6432;SDS011;3249;42.690;23.260;2023-01-16T09:28:01;89.73;;;51.57;;
6432;SDS011;3249;42.690;23.260;2023-01-16T09:30:30;96.23;;;54.77;;
6432;SDS011;3249;42.690;23.260;2023-01-16T09:32:59;92.13;;;55.40;;
6432;SDS011;3249;42.690;23.260;2023-01-16T09:35:28;84.77;;;52.70;;
6432;SDS011;3249;42.690;23.260;2023-01-16T09:37:59;85.90;;;50.13;;
6432;SDS011;3249;42.690;23.260;2023-01-16T09:40:29;94.33;;;55.77;;
6432;SDS011;3249;42.690;23.260;2023-01-16T09:43:02;98.10;;;58.40;;
6432;SDS011;3249;42.690;23.260;2023-01-16T09:45:56;113.67;;;61.37;;
6432;SDS011;3249;42.690;23.260;2023-01-16T09:48:30;94.23;;;51.67;;
6432;SDS011;3249;42.690;23.260;2023-01-16T09:51:01;104.43;;;55.67;;
6432;SDS011;3249;42.690;23.260;2023-01-16T09:53:41;84.33;;;49.10;;
6432;SDS011;3249;42.690;23.260;2023-01-16T09:56:40;74.90;;;46.77;;
6432;SDS011;3249;42.690;23.260;2023-01-16T09:59:25;71.60;;;43.53;;
6432;SDS011;3249;42.690;23.260;2023-01-16T10:02:03;68.50;;;42.00;;
6432;SDS011;3249;42.690;23.260;2023-01-16T10:04:39;74.40;;;43.10;;
6432;SDS011;3249;42.690;23.260;2023-01-16T10:07:22;71.00;;;42.53;;
6432;SDS011;3249;42.690;23.260;2023-01-16T10:10:10;77.77;;;44.93;;
6432;SDS011;3249;42.690;23.260;2023-01-16T10:12:51;77.47;;;40.77;;
6432;SDS011;3249;42.690;23.260;2023-01-16T10:15:32;69.20;;;40.07;;
6432;SDS011;3249;42.690;23.260;2023-01-16T10:18:13;68.40;;;38.93;;
6432;SDS011;3249;42.690;23.260;2023-01-16T10:21:04;76.13;;;41.87;;
6432;SDS011;3249;42.690;23.260;2023-01-16T10:24:00;64.43;;;41.17;;
6432;SDS011;3249;42.690;23.260;2023-01-16T10:26:34;70.17;;;40.87;;
6432;SDS011;3249;42.690;23.260;2023-01-16T10:29:14;69.07;;;39.23;;
6432;SDS011;3249;42.690;23.260;2023-01-16T10:31:54;66.63;;;37.87;;
6432;SDS011;3249;42.690;23.260;2023-01-16T10:34:28;64.90;;;37.63;;
6432;SDS011;3249;42.690;23.260;2023-01-16T10:37:01;62.93;;;38.60;;
6432;SDS011;3249;42.690;23.260;2023-01-16T10:39:34;57.43;;;35.47;;
6432;SDS011;3249;42.690;23.260;2023-01-16T10:42:14;61.47;;;40.43;;
6432;SDS011;3249;42.690;23.260;2023-01-16T10:45:01;54.20;;;35.80;;
6432;SDS011;3249;42.690;23.260;2023-01-16T10:47:53;51.77;;;33.23;;
6432;SDS011;3249;42.690;23.260;2023-01-16T10:50:35;58.33;;;38.20;;
6432;SDS011;3249;42.690;23.260;2023-01-16T10:53:05;52.07;;;32.17;;
6432;SDS011;3249;42.690;23.260;2023-01-16T10:55:37;41.73;;;28.03;;
6432;SDS011;3249;42.690;23.260;2023-01-16T10:58:16;53.37;;;31.63;;
6432;SDS011;3249;42.690;23.260;2023-01-16T11:00:51;44.20;;;27.83;;
6432;SDS011;3249;42.690;23.260;2023-01-16T11:03:28;43.40;;;29.17;;
6432;SDS011;3249;42.690;23.260;2023-01-16T11:06:08;46.67;;;32.47;;
6432;SDS011;3249;42.690;23.260;2023-01-16T11:08:40;38.17;;;24.77;;
6432;SDS011;3249;42.690;23.260;2023-01-16T11:11:11;26.47;;;20.17;;
6432;SDS011;3249;42.690;23.260;2023-01-16T11:13:56;32.20;;;22.30;;
6432;SDS011;3249;42.690;23.260;2023-01-16T11:16:39;37.33;;;24.90;;
6432;SDS011;3249;42.690;23.260;2023-01-16T11:19:21;90.27;;;64.73;;
6432;SDS011;3249;42.690;23.260;2023-01-16T11:21:53;50.30;;;32.67;;
6432;SDS011;3249;42.690;23.260;2023-01-16T11:24:28;71.63;;;45.77;;
6432;SDS011;3249;42.690;23.260;2023-01-16T11:27:01;76.70;;;57.57;;
6432;SDS011;3249;42.690;23.260;2023-01-16T11:29:38;46.50;;;31.47;;
6432;SDS011;3249;42.690;23.260;2023-01-16T11:32:09;48.47;;;30.87;;
6432;SDS011;3249;42.690;23.260;2023-01-16T11:34:43;42.13;;;26.37;;
6432;SDS011;3249;42.690;23.260;2023-01-16T11:37:15;39.23;;;25.63;;
6432;SDS011;3249;42.690;23.260;2023-01-16T11:39:46;47.97;;;25.60;;
6432;SDS011;3249;42.690;23.260;2023-01-16T11:42:17;36.67;;;23.83;;
6432;SDS011;3249;42.690;23.260;2023-01-16T11:45:04;45.73;;;28.73;;
6432;SDS011;3249;42.690;23.260;2023-01-16T11:47:53;32.37;;;22.80;;
6432;SDS011;3249;42.690;23.260;2023-01-16T11:50:26;28.13;;;21.00;;
6432;SDS011;3249;42.690;23.260;2023-01-16T11:52:57;38.23;;;24.43;;
6432;SDS011;3249;42.690;23.260;2023-01-16T11:55:28;31.17;;;19.80;;
6432;SDS011;3249;42.690;23.260;2023-01-16T11:58:06;27.30;;;18.57;;
6432;SDS011;3249;42.690;23.260;2023-01-16T12:00:48;30.97;;;23.57;;
6432;SDS011;3249;42.690;23.260;2023-01-16T12:03:30;39.23;;;22.37;;
6432;SDS011;3249;42.690;23.260;2023-01-16T12:06:17;34.47;;;22.80;;
6432;SDS011;3249;42.690;23.260;2023-01-16T12:11:58;30.53;;;21.17;;
6432;SDS011;3249;42.690;23.260;2023-01-16T12:14:53;36.50;;;24.20;;
6432;SDS011;3249;42.690;23.260;2023-01-16T12:17:30;41.20;;;27.63;;
6432;SDS011;3249;42.690;23.260;2023-01-16T12:20:16;41.37;;;24.17;;
6432;SDS011;3249;42.690;23.260;2023-01-16T12:25:56;41.80;;;26.30;;
6432;SDS011;3249;42.690;23.260;2023-01-16T12:28:36;30.73;;;21.97;;
6432;SDS011;3249;42.690;23.260;2023-01-16T12:34:18;38.30;;;22.00;;
6432;SDS011;3249;42.690;23.260;2023-01-16T12:36:59;29.77;;;20.40;;
6432;SDS011;3249;42.690;23.260;2023-01-16T12:39:40;34.80;;;20.10;;
6432;SDS011;3249;42.690;23.260;2023-01-16T12:42:21;35.73;;;20.80;;
6432;SDS011;3249;42.690;23.260;2023-01-16T12:45:15;28.53;;;18.67;;
6432;SDS011;3249;42.690;23.260;2023-01-16T12:48:02;27.93;;;19.23;;
6432;SDS011;3249;42.690;23.260;2023-01-16T12:50:48;27.07;;;18.27;;
6432;SDS011;3249;42.690;23.260;2023-01-16T12:53:37;29.03;;;17.47;;
6432;SDS011;3249;42.690;23.260;2023-01-16T12:56:29;25.57;;;18.03;;
6432;SDS011;3249;42.690;23.260;2023-01-16T12:59:08;22.67;;;16.97;;
6432;SDS011;3249;42.690;23.260;2023-01-16T13:01:44;22.60;;;15.87;;
6432;SDS011;3249;42.690;23.260;2023-01-16T13:04:17;23.23;;;17.50;;
6432;SDS011;3249;42.690;23.260;2023-01-16T13:06:53;28.03;;;19.13;;
6432;SDS011;3249;42.690;23.260;2023-01-16T13:09:26;28.07;;;19.53;;
6432;SDS011;3249;42.690;23.260;2023-01-16T13:12:05;26.70;;;18.90;;
6432;SDS011;3249;42.690;23.260;2023-01-16T13:14:54;32.87;;;20.80;;
6432;SDS011;3249;42.690;23.260;2023-01-16T13:17:36;31.63;;;20.47;;
6432;SDS011;3249;42.690;23.260;2023-01-16T13:20:12;28.37;;;18.90;;
6432;SDS011;3249;42.690;23.260;2023-01-16T13:22:47;29.17;;;19.07;;
6432;SDS011;3249;42.690;23.260;2023-01-16T13:25:20;33.67;;;21.07;;
6432;SDS011;3249;42.690;23.260;2023-01-16T13:27:55;57.50;;;32.10;;
6432;SDS011;3249;42.690;23.260;2023-01-16T13:30:29;37.83;;;24.03;;
6432;SDS011;3249;42.690;23.260;2023-01-16T13:32:58;62.10;;;35.47;;
6432;SDS011;3249;42.690;23.260;2023-01-16T13:35:33;30.17;;;17.37;;
6432;SDS011;3249;42.690;23.260;2023-01-16T13:38:15;27.03;;;16.87;;
6432;SDS011;3249;42.690;23.260;2023-01-16T13:41:14;28.03;;;17.77;;
6432;SDS011;3249;42.690;23.260;2023-01-16T13:43:49;27.60;;;17.03;;
6432;SDS011;3249;42.690;23.260;2023-01-16T13:46:36;27.77;;;18.53;;
6432;SDS011;3249;42.690;23.260;2023-01-16T13:49:05;28.07;;;18.23;;
6432;SDS011;3249;42.690;23.260;2023-01-16T13:51:41;27.20;;;17.40;;
6432;SDS011;3249;42.690;23.260;2023-01-16T13:54:16;26.60;;;16.70;;
6432;SDS011;3249;42.690;23.260;2023-01-16T13:56:55;23.50;;;15.97;;
6432;SDS011;3249;42.690;23.260;2023-01-16T13:59:34;29.10;;;16.13;;
6432;SDS011;3249;42.690;23.260;2023-01-16T14:02:22;21.30;;;15.10;;
6432;SDS011;3249;42.690;23.260;2023-01-16T14:07:50;28.77;;;20.23;;
6432;SDS011;3249;42.690;23.260;2023-01-16T14:10:48;43.23;;;29.97;;
6432;SDS011;3249;42.690;23.260;2023-01-16T14:13:32;35.23;;;23.43;;
6432;SDS011;3249;42.690;23.260;2023-01-16T14:18:59;43.00;;;29.73;;
6432;SDS011;3249;42.690;23.260;2023-01-16T14:21:39;39.77;;;25.77;;
6432;SDS011;3249;42.690;23.260;2023-01-16T14:24:12;35.07;;;22.63;;
6432;SDS011;3249;42.690;23.260;2023-01-16T14:26:45;32.70;;;20.00;;
6432;SDS011;3249;42.690;23.260;2023-01-16T14:29:19;32.03;;;18.90;;
6432;SDS011;3249;42.690;23.260;2023-01-16T14:31:52;26.73;;;17.07;;
6432;SDS011;3249;42.690;23.260;2023-01-16T14:34:25;33.60;;;21.97;;
6432;SDS011;3249;42.690;23.260;2023-01-16T14:36:59;48.20;;;31.80;;
6432;SDS011;3249;42.690;23.260;2023-01-16T14:39:34;56.97;;;35.73;;
6432;SDS011;3249;42.690;23.260;2023-01-16T14:42:13;40.67;;;27.70;;
6432;SDS011;3249;42.690;23.260;2023-01-16T14:45:09;34.93;;;24.17;;
6432;SDS011;3249;42.690;23.260;2023-01-16T14:47:59;39.80;;;27.13;;
6432;SDS011;3249;42.690;23.260;2023-01-16T14:50:51;33.03;;;23.43;;
6432;SDS011;3249;42.690;23.260;2023-01-16T14:53:36;33.93;;;20.33;;
6432;SDS011;3249;42.690;23.260;2023-01-16T14:56:22;26.53;;;18.47;;
6432;SDS011;3249;42.690;23.260;2023-01-16T14:58:59;27.40;;;17.70;;
6432;SDS011;3249;42.690;23.260;2023-01-16T15:01:33;32.60;;;21.10;;
6432;SDS011;3249;42.690;23.260;2023-01-16T15:04:21;34.63;;;21.10;;
6432;SDS011;3249;42.690;23.260;2023-01-16T15:06:55;47.47;;;27.43;;
6432;SDS011;3249;42.690;23.260;2023-01-16T15:09:28;39.93;;;24.40;;
6432;SDS011;3249;42.690;23.260;2023-01-16T15:11:58;32.63;;;21.33;;
6432;SDS011;3249;42.690;23.260;2023-01-16T15:14:31;31.77;;;18.93;;
6432;SDS011;3249;42.690;23.260;2023-01-16T15:17:06;27.57;;;18.93;;
6432;SDS011;3249;42.690;23.260;2023-01-16T15:20:00;31.23;;;20.80;;
6432;SDS011;3249;42.690;23.260;2023-01-16T15:22:49;30.27;;;19.73;;
6432;SDS011;3249;42.690;23.260;2023-01-16T15:25:24;27.67;;;18.63;;
6432;SDS011;3249;42.690;23.260;2023-01-16T15:28:06;34.30;;;23.10;;
6432;SDS011;3249;42.690;23.260;2023-01-16T15:30:45;55.87;;;35.93;;
6432;SDS011;3249;42.690;23.260;2023-01-16T15:33:23;64.77;;;40.10;;
6432;SDS011;3249;42.690;23.260;2023-01-16T15:36:09;44.40;;;30.20;;